createdAt,value
2023-03-05T00:01:33.492Z,14.55
2023-03-05T00:04:35.114Z,14.95
2023-03-05T00:07:36.675Z,14.30
2023-03-05T00:10:38.253Z,13.52
2023-03-05T00:13:39.859Z,14.68
2023-03-05T00:16:41.351Z,13.65
2023-03-05T00:19:43.081Z,16.20
2023-03-05T00:22:44.576Z,14.00
2023-03-05T00:25:46.641Z,13.38
2023-03-05T00:28:50.000Z,15.10
2023-03-05T00:31:51.511Z,13.60
2023-03-05T00:34:53.017Z,15.05
2023-03-05T00:37:54.537Z,13.65
2023-03-05T00:40:56.048Z,15.07
2023-03-05T00:43:57.696Z,16.85
2023-03-05T00:46:59.217Z,14.07
2023-03-05T00:50:00.863Z,13.20
2023-03-05T00:53:02.571Z,15.15
2023-03-05T00:56:04.299Z,13.85
2023-03-05T00:59:05.822Z,12.37
2023-03-05T01:02:07.301Z,13.18
2023-03-05T01:05:11.783Z,13.48
2023-03-05T01:08:13.320Z,12.30
2023-03-05T01:11:14.807Z,14.60
2023-03-05T01:14:16.317Z,12.90
2023-03-05T01:17:17.839Z,12.52
2023-03-05T01:20:20.145Z,13.23
2023-03-05T01:23:21.641Z,13.77
2023-03-05T01:26:23.189Z,12.85
2023-03-05T01:29:24.763Z,14.80
2023-03-05T01:32:26.317Z,12.60
2023-03-05T01:35:27.955Z,13.65
2023-03-05T01:38:29.501Z,12.93
2023-03-05T01:41:34.044Z,12.73
2023-03-05T01:44:35.537Z,12.20
2023-03-05T01:47:37.410Z,11.68
2023-03-05T01:50:38.897Z,14.57
2023-03-05T01:53:40.379Z,13.73
2023-03-05T01:56:42.002Z,13.10
2023-03-05T01:59:44.640Z,13.07
2023-03-05T02:05:48.864Z,12.80
2023-03-05T02:08:50.383Z,13.32
2023-03-05T02:11:51.914Z,13.05
2023-03-05T02:14:59.088Z,12.90
2023-03-05T02:18:01.353Z,13.75
2023-03-05T02:21:05.284Z,13.20
2023-03-05T02:24:07.006Z,13.27
2023-03-05T02:27:08.545Z,14.63
2023-03-05T02:30:10.705Z,14.00
2023-03-05T02:33:14.162Z,10.13
2023-03-05T02:36:15.610Z,12.57
2023-03-05T02:39:17.340Z,11.18
2023-03-05T02:42:18.843Z,12.60
2023-03-05T02:45:20.394Z,12.30
2023-03-05T02:48:21.900Z,11.55
2023-03-05T02:51:23.366Z,12.55
2023-03-05T02:54:24.875Z,13.15
2023-03-05T02:57:26.384Z,12.85
2023-03-05T03:00:27.962Z,12.50
2023-03-05T03:03:30.083Z,11.80
2023-03-05T03:06:31.605Z,11.15
2023-03-05T03:09:34.916Z,13.20
2023-03-05T03:12:39.961Z,11.35
2023-03-05T03:15:41.454Z,13.90
2023-03-05T03:18:44.091Z,14.18
2023-03-05T03:24:46.911Z,11.00
2023-03-05T03:27:48.450Z,11.95
2023-03-05T03:30:50.175Z,13.10
2023-03-05T03:33:51.719Z,12.07
2023-03-05T03:36:53.191Z,14.63
2023-03-05T03:39:54.702Z,13.38
2023-03-05T03:42:56.180Z,13.63
2023-03-05T03:45:57.653Z,13.60
2023-03-05T03:48:59.180Z,11.65
2023-03-05T03:52:00.677Z,13.85
2023-03-05T03:55:02.194Z,14.23
2023-03-05T03:58:04.168Z,13.07
2023-03-05T04:01:05.722Z,11.43
2023-03-05T04:04:07.335Z,12.75
2023-03-05T04:07:08.926Z,12.45
2023-03-05T04:10:11.533Z,11.80
2023-03-05T04:13:13.002Z,11.57
2023-03-05T04:16:15.078Z,11.48
2023-03-05T04:19:16.680Z,11.23
2023-03-05T04:22:18.201Z,12.20
2023-03-05T04:25:19.775Z,11.85
2023-03-05T04:28:21.321Z,13.55
2023-03-05T04:31:23.781Z,12.38
2023-03-05T04:34:25.354Z,13.23
2023-03-05T04:37:26.845Z,12.43
2023-03-05T04:40:28.375Z,11.75
2023-03-05T04:43:29.974Z,13.43
2023-03-05T04:46:31.530Z,13.30
2023-03-05T04:49:33.013Z,12.43
2023-03-05T04:52:34.522Z,11.70
2023-03-05T04:55:36.040Z,12.20
2023-03-05T04:58:37.542Z,11.40
2023-03-05T05:01:39.281Z,12.57
2023-03-05T05:04:44.916Z,11.87
2023-03-05T05:07:47.045Z,11.05
2023-03-05T05:11:08.834Z,10.65
2023-03-05T05:14:10.385Z,11.73
2023-03-05T05:17:11.878Z,12.57
2023-03-05T05:20:14.256Z,11.18
2023-03-05T05:23:15.925Z,11.05
2023-03-05T05:26:17.405Z,11.63
2023-03-05T05:29:18.880Z,10.77
2023-03-05T05:32:20.993Z,11.10
2023-03-05T05:35:22.526Z,11.75
2023-03-05T05:38:24.032Z,11.82
2023-03-05T05:41:25.494Z,10.80
2023-03-05T05:44:26.973Z,10.90
2023-03-05T05:47:29.387Z,10.45
2023-03-05T05:50:30.918Z,12.43
2023-03-05T05:53:32.413Z,12.65
2023-03-05T05:56:33.952Z,11.55
2023-03-05T05:59:35.457Z,10.77
2023-03-05T06:02:40.700Z,11.82
2023-03-05T06:05:42.795Z,12.95
2023-03-05T06:08:44.266Z,11.25
2023-03-05T06:11:45.794Z,12.05
2023-03-05T06:14:47.534Z,11.23
2023-03-05T06:17:49.041Z,10.45
2023-03-05T06:20:57.834Z,10.57
2023-03-05T06:23:59.350Z,11.25
2023-03-05T06:27:00.841Z,10.35
2023-03-05T06:30:02.451Z,10.82
2023-03-05T06:33:03.924Z,10.82
2023-03-05T06:36:06.603Z,10.70
2023-03-05T06:42:10.132Z,10.18
2023-03-05T06:45:11.842Z,10.95
2023-03-05T06:48:13.432Z,10.20
2023-03-05T06:51:16.763Z,11.73
2023-03-05T06:54:18.495Z,11.23
2023-03-05T06:57:19.983Z,11.63
2023-03-05T07:00:21.981Z,10.88
2023-03-05T07:03:24.194Z,10.32
2023-03-05T07:06:27.378Z,11.75
2023-03-05T07:09:29.040Z,11.88
2023-03-05T07:12:30.506Z,11.15
2023-03-05T07:15:32.012Z,11.43
2023-03-05T07:18:33.569Z,11.65
2023-03-05T07:21:37.436Z,11.45
2023-03-05T07:24:40.679Z,12.70
2023-03-05T07:27:42.142Z,12.15
2023-03-05T07:30:43.718Z,10.02
2023-03-05T07:33:48.839Z,11.98
2023-03-05T07:36:51.468Z,10.93
2023-03-05T07:42:54.578Z,11.43
2023-03-05T07:45:56.205Z,11.43
2023-03-05T07:48:57.727Z,11.27
2023-03-05T07:51:59.230Z,12.02
2023-03-05T07:55:00.736Z,11.82
2023-03-05T07:58:02.250Z,11.90
2023-03-05T08:01:03.986Z,9.75
2023-03-05T08:04:05.809Z,10.53
2023-03-05T08:07:07.318Z,11.55
2023-03-05T08:10:09.585Z,10.73
2023-03-05T08:13:11.107Z,10.60
2023-03-05T08:16:14.512Z,10.20
2023-03-05T08:19:16.085Z,14.93
2023-03-05T08:22:20.455Z,12.13
2023-03-05T08:25:22.034Z,15.98
2023-03-05T08:28:23.703Z,11.50
2023-03-05T08:31:26.017Z,11.93
2023-03-05T08:34:27.511Z,13.20
2023-03-05T08:37:28.971Z,12.68
2023-03-05T08:40:30.477Z,12.38
2023-03-05T08:43:33.195Z,12.68
2023-03-05T08:49:37.259Z,10.95
2023-03-05T08:52:38.756Z,11.02
2023-03-05T08:55:40.224Z,11.13
2023-03-05T08:58:41.842Z,10.20
2023-03-05T09:01:43.425Z,10.25
2023-03-05T09:04:44.939Z,9.93
2023-03-05T09:07:46.467Z,11.50
2023-03-05T09:10:47.993Z,10.65
2023-03-05T09:13:49.475Z,10.43
2023-03-05T09:16:51.011Z,11.60
2023-03-05T09:19:52.605Z,10.43
2023-03-05T09:22:54.144Z,11.00
2023-03-05T09:25:55.634Z,9.93
2023-03-05T09:28:57.172Z,11.35
2023-03-05T09:31:58.836Z,10.75
2023-03-05T09:35:00.402Z,12.70
2023-03-05T09:38:02.184Z,11.30
2023-03-05T09:41:31.966Z,10.17
2023-03-05T09:45:03.450Z,21.27
2023-03-05T09:48:13.160Z,11.05
2023-03-05T09:51:26.024Z,11.18
2023-03-05T09:57:43.456Z,11.13
2023-03-05T10:00:54.342Z,9.57
2023-03-05T10:04:01.971Z,10.25
2023-03-05T10:07:19.537Z,10.77
2023-03-05T10:10:24.973Z,10.85
2023-03-05T10:13:30.161Z,19.35
2023-03-05T10:16:40.890Z,11.43
2023-03-05T10:20:06.208Z,14.75
2023-03-05T10:23:25.844Z,13.57
2023-03-05T10:26:33.661Z,13.45
2023-03-05T10:29:58.011Z,11.70
2023-03-05T10:33:00.852Z,14.32
2023-03-05T10:36:14.476Z,12.65
2023-03-05T10:39:34.342Z,13.18
2023-03-05T10:42:48.312Z,12.45
2023-03-05T10:45:53.765Z,10.80
2023-03-05T10:48:58.721Z,11.27
2023-03-05T10:52:18.359Z,9.30
2023-03-05T10:55:21.532Z,10.70
2023-03-05T10:58:24.827Z,13.05
2023-03-05T11:01:28.105Z,12.30
2023-03-05T11:04:29.969Z,10.27
2023-03-05T11:07:33.569Z,14.77
2023-03-05T11:10:35.041Z,13.05
2023-03-05T11:13:38.324Z,12.15
2023-03-05T11:16:47.855Z,12.05
2023-03-05T11:19:49.350Z,12.82
2023-03-05T11:23:09.521Z,13.05
2023-03-05T11:26:13.857Z,12.73
2023-03-05T11:29:36.633Z,13.18
2023-03-05T11:32:38.279Z,14.43
2023-03-05T11:35:40.935Z,13.83
2023-03-05T11:41:59.286Z,13.85
2023-03-05T11:45:00.803Z,15.10
2023-03-05T11:48:08.628Z,14.15
2023-03-05T11:51:17.997Z,14.40
2023-03-05T11:54:23.357Z,15.25
2023-03-05T11:57:24.839Z,13.60
2023-03-05T12:00:28.524Z,14.77
2023-03-05T12:03:32.301Z,14.20
2023-03-05T12:06:43.159Z,13.10
2023-03-05T12:09:49.488Z,14.68
2023-03-05T12:12:58.449Z,14.15
2023-03-05T12:16:11.456Z,15.32
2023-03-05T12:19:34.519Z,14.93
2023-03-05T12:25:52.037Z,13.02
2023-03-05T12:28:54.237Z,13.82
2023-03-05T12:31:55.840Z,13.07
2023-03-05T12:35:00.222Z,14.48
2023-03-05T12:38:06.192Z,12.65
2023-03-05T12:41:26.242Z,12.27
2023-03-05T12:44:29.667Z,12.80
2023-03-05T12:47:31.147Z,13.07
2023-03-05T12:50:47.472Z,12.60
2023-03-05T12:53:51.245Z,15.15
2023-03-05T12:56:53.103Z,14.98
2023-03-05T13:00:11.018Z,12.05
2023-03-05T13:03:17.539Z,12.32
2023-03-05T13:06:45.407Z,10.77
2023-03-05T13:09:52.890Z,10.65
2023-03-05T13:12:55.821Z,11.23
2023-03-05T13:15:57.471Z,11.30
2023-03-05T13:19:01.114Z,11.23
2023-03-05T13:22:04.676Z,11.55
2023-03-05T13:25:20.631Z,10.07
2023-03-05T13:28:22.136Z,10.23
2023-03-05T13:31:24.495Z,13.18
2023-03-05T13:34:40.802Z,10.70
2023-03-05T13:37:47.496Z,11.07
2023-03-05T13:41:04.474Z,11.23
2023-03-05T13:44:06.035Z,10.82
2023-03-05T13:47:18.985Z,11.20
2023-03-05T13:50:25.905Z,13.43
2023-03-05T13:53:28.992Z,11.13
2023-03-05T13:56:30.480Z,10.82
2023-03-05T13:59:33.899Z,9.88
2023-03-05T14:02:35.513Z,9.60
2023-03-05T14:05:37.054Z,9.70
2023-03-05T14:08:38.625Z,9.52
2023-03-05T14:11:40.118Z,9.70
2023-03-05T14:14:41.847Z,8.27
2023-03-05T14:17:43.365Z,10.03
2023-03-05T14:21:02.559Z,7.10
2023-03-05T14:24:12.461Z,8.63
2023-03-05T14:27:17.750Z,9.15
2023-03-05T14:30:22.806Z,10.18
2023-03-05T14:33:29.592Z,10.02
2023-03-05T14:36:31.291Z,9.30
2023-03-05T14:39:46.672Z,9.67
2023-03-05T14:43:04.756Z,8.82
2023-03-05T14:46:06.338Z,9.05
2023-03-05T14:49:07.920Z,10.65
2023-03-05T14:52:14.794Z,9.65
2023-03-05T14:55:17.600Z,9.10
2023-03-05T14:58:25.116Z,9.65
2023-03-05T15:01:26.722Z,8.85
2023-03-05T15:04:28.258Z,7.68
2023-03-05T15:07:30.405Z,9.38
2023-03-05T15:10:31.964Z,8.55
2023-03-05T15:13:34.696Z,6.50
2023-03-05T15:16:36.208Z,8.43
2023-03-05T15:19:37.689Z,10.65
2023-03-05T15:22:39.179Z,9.52
2023-03-05T15:25:42.034Z,10.82
2023-03-05T15:28:43.577Z,10.77
2023-03-05T15:31:45.048Z,9.18
2023-03-05T15:34:46.719Z,9.00
2023-03-05T15:37:48.212Z,9.63
2023-03-05T15:40:50.037Z,8.95
2023-03-05T15:43:51.816Z,8.20
2023-03-05T15:46:53.413Z,6.97
2023-03-05T15:49:54.913Z,9.32
2023-03-05T15:52:56.891Z,9.82
2023-03-05T15:55:58.557Z,10.68
2023-03-05T15:59:00.984Z,9.97
2023-03-05T16:02:02.484Z,11.10
2023-03-05T16:05:04.540Z,9.57
2023-03-05T16:08:06.593Z,10.77
2023-03-05T16:11:08.129Z,7.43
2023-03-05T16:14:09.605Z,10.70
2023-03-05T16:17:11.178Z,9.60
2023-03-05T16:20:13.003Z,11.07
2023-03-05T16:23:14.541Z,10.50
2023-03-05T16:26:16.195Z,12.48
2023-03-05T16:29:17.664Z,10.63
2023-03-05T16:32:19.222Z,10.98
2023-03-05T16:35:20.950Z,10.65
2023-03-05T16:38:22.438Z,11.00
2023-03-05T16:41:24.445Z,10.80
2023-03-05T16:44:25.969Z,10.18
2023-03-05T16:47:27.464Z,10.48
2023-03-05T16:50:28.945Z,10.52
2023-03-05T16:53:30.413Z,12.13
2023-03-05T16:56:31.905Z,10.18
2023-03-05T16:59:33.396Z,14.30
2023-03-05T17:02:35.136Z,16.75
2023-03-05T17:05:36.926Z,11.40
2023-03-05T17:08:38.482Z,14.83
2023-03-05T17:11:40.055Z,14.88
2023-03-05T17:14:41.528Z,11.70
2023-03-05T17:17:43.101Z,11.48
2023-03-05T17:20:44.623Z,10.40
2023-03-05T17:23:46.144Z,10.10
2023-03-05T17:26:47.703Z,11.02
2023-03-05T17:29:49.213Z,10.55
2023-03-05T17:32:52.566Z,9.55
2023-03-05T17:35:54.309Z,14.40
2023-03-05T17:38:55.829Z,9.27
2023-03-05T17:41:57.398Z,12.02
2023-03-05T17:44:59.242Z,10.40
2023-03-05T17:48:00.785Z,10.00
2023-03-05T17:51:02.267Z,9.05
2023-03-05T17:54:04.592Z,9.50
2023-03-05T17:57:06.097Z,10.70
2023-03-05T18:00:11.994Z,11.07
2023-03-05T18:03:13.511Z,9.85
2023-03-05T18:06:15.000Z,9.45
2023-03-05T18:09:16.470Z,10.90
2023-03-05T18:12:18.052Z,10.30
2023-03-05T18:15:19.831Z,10.52
2023-03-05T18:18:21.607Z,10.93
2023-03-05T18:21:23.979Z,12.80
2023-03-05T18:24:25.485Z,10.85
2023-03-05T18:27:27.106Z,11.25
2023-03-05T18:30:28.801Z,8.88
2023-03-05T18:33:30.315Z,11.70
2023-03-05T18:36:32.137Z,11.35
2023-03-05T18:39:33.963Z,9.87
2023-03-05T18:42:36.802Z,11.23
2023-03-05T18:45:38.338Z,10.18
2023-03-05T18:48:40.041Z,11.18
2023-03-05T18:51:41.658Z,9.13
2023-03-05T18:54:43.151Z,9.63
2023-03-05T18:57:44.706Z,9.13
2023-03-05T19:00:47.084Z,10.05
2023-03-05T19:03:49.267Z,11.48
2023-03-05T19:06:50.756Z,12.20
2023-03-05T19:09:59.646Z,8.05
2023-03-05T19:13:24.114Z,9.40
2023-03-05T19:16:33.798Z,9.80
2023-03-05T19:19:35.305Z,9.32
2023-03-05T19:22:36.779Z,9.80
2023-03-05T19:25:40.171Z,10.07
2023-03-05T19:28:41.666Z,10.93
2023-03-05T19:31:43.165Z,10.50
2023-03-05T19:34:44.974Z,7.07
2023-03-05T19:37:46.593Z,10.07
2023-03-05T19:40:48.086Z,10.38
2023-03-05T19:43:49.921Z,9.60
2023-03-05T19:46:51.435Z,13.38
2023-03-05T19:49:52.977Z,10.32
2023-03-05T19:52:54.465Z,9.73
2023-03-05T19:55:56.560Z,10.35
2023-03-05T19:58:58.190Z,13.25
2023-03-05T20:02:00.323Z,7.28
2023-03-05T20:05:02.235Z,9.50
2023-03-05T20:08:03.747Z,9.00
2023-03-05T20:11:05.453Z,7.80
2023-03-05T20:14:07.374Z,9.93
2023-03-05T20:17:08.866Z,6.93
2023-03-05T20:20:13.420Z,8.60
2023-03-05T20:23:14.927Z,8.88
2023-03-05T20:26:16.671Z,11.05
2023-03-05T20:29:18.831Z,9.30
2023-03-05T20:32:20.457Z,10.85
2023-03-05T20:35:21.988Z,12.02
2023-03-05T20:38:29.481Z,12.57
2023-03-05T20:41:31.091Z,14.45
2023-03-05T20:44:32.631Z,11.45
2023-03-05T20:47:40.784Z,10.93
2023-03-05T20:50:42.455Z,11.02
2023-03-05T20:53:44.035Z,11.35
2023-03-05T20:56:45.621Z,12.05
2023-03-05T20:59:47.138Z,10.30
2023-03-05T21:02:50.264Z,10.07
2023-03-05T21:05:51.899Z,10.65
2023-03-05T21:08:53.501Z,9.75
2023-03-05T21:11:54.997Z,10.60
2023-03-05T21:14:56.503Z,9.60
2023-03-05T21:17:58.013Z,8.73
2023-03-05T21:20:59.496Z,9.63
2023-03-05T21:24:01.235Z,8.60
2023-03-05T21:27:02.734Z,9.23
2023-03-05T21:30:04.551Z,9.40
2023-03-05T21:33:08.127Z,9.97
2023-03-05T21:36:09.672Z,9.55
2023-03-05T21:39:11.149Z,8.93
2023-03-05T21:42:12.758Z,9.82
2023-03-05T21:45:17.692Z,9.85
2023-03-05T21:48:19.444Z,9.10
2023-03-05T21:51:26.731Z,10.80
2023-03-05T21:54:29.135Z,9.43
2023-03-05T21:57:30.745Z,10.05
2023-03-05T22:00:32.225Z,9.57
2023-03-05T22:03:33.766Z,10.10
2023-03-05T22:06:35.278Z,10.07
2023-03-05T22:09:36.753Z,10.05
2023-03-05T22:13:03.094Z,10.00
2023-03-05T22:16:05.322Z,7.47
2023-03-05T22:19:07.158Z,6.65
2023-03-05T22:22:08.668Z,6.18
2023-03-05T22:25:12.833Z,10.02
2023-03-05T22:28:14.322Z,12.50
2023-03-05T22:31:25.883Z,9.63
2023-03-05T22:34:28.827Z,8.43
2023-03-05T22:37:30.461Z,9.18
2023-03-05T22:40:31.930Z,8.77
2023-03-05T22:43:33.406Z,8.57
2023-03-05T22:46:37.708Z,9.07
2023-03-05T22:49:39.201Z,8.57
2023-03-05T22:52:40.685Z,8.73
2023-03-05T22:55:42.257Z,7.95
2023-03-05T22:58:43.805Z,8.93
2023-03-05T23:01:45.298Z,8.18
2023-03-05T23:04:52.528Z,7.85
2023-03-05T23:07:54.024Z,8.82
2023-03-05T23:10:55.517Z,15.90
2023-03-05T23:13:57.003Z,8.57
2023-03-05T23:16:58.518Z,8.02
2023-03-05T23:19:59.998Z,8.27
2023-03-05T23:23:01.531Z,7.95
2023-03-05T23:26:03.050Z,7.72
2023-03-05T23:29:04.536Z,7.80
2023-03-05T23:32:06.391Z,7.57
2023-03-05T23:35:10.329Z,7.37
2023-03-05T23:38:12.838Z,6.18
2023-03-05T23:41:14.313Z,6.20
2023-03-05T23:44:15.801Z,6.30
2023-03-05T23:47:17.296Z,7.30
2023-03-05T23:50:22.424Z,6.47
2023-03-05T23:53:25.574Z,6.80
2023-03-05T23:56:27.130Z,7.65
2023-03-05T23:59:28.609Z,8.50
